createdAt,value
2022-10-20T00:00:58.116Z,95435.59
2022-10-20T00:03:25.374Z,95441.16
2022-10-20T00:05:52.247Z,95439.25
2022-10-20T00:08:18.763Z,95435.22
2022-10-20T00:10:55.709Z,95430.47
2022-10-20T00:13:22.571Z,95439.75
2022-10-20T00:15:49.879Z,95444.53
2022-10-20T00:18:16.677Z,95449.31
2022-10-20T00:20:44.110Z,95445.31
2022-10-20T00:23:10.773Z,95441.78
2022-10-20T00:25:37.332Z,95438.59
2022-10-20T00:28:03.927Z,95431.78
2022-10-20T00:30:30.491Z,95424.28
2022-10-20T00:32:57.226Z,95414.13
2022-10-20T00:35:23.751Z,95414.72
2022-10-20T00:37:50.304Z,95415.53
2022-10-20T00:40:16.983Z,95419.16
2022-10-20T00:42:47.203Z,95420.41
2022-10-20T00:45:17.357Z,95414.00
2022-10-20T00:47:47.660Z,95408.56
2022-10-20T00:50:17.573Z,95410.94
2022-10-20T00:52:45.482Z,95426.22
2022-10-20T00:55:14.633Z,95426.66
2022-10-20T00:57:42.550Z,95423.72
2022-10-20T01:00:09.463Z,95422.59
2022-10-20T01:02:36.399Z,95421.44
2022-10-20T01:05:03.070Z,95422.72
2022-10-20T01:07:29.588Z,95425.16
2022-10-20T01:09:56.895Z,95415.63
2022-10-20T01:12:46.375Z,95421.53
2022-10-20T01:15:28.458Z,95426.75
2022-10-20T01:18:04.615Z,95428.66
2022-10-20T01:20:37.132Z,95424.00
2022-10-20T01:23:18.682Z,95414.47
2022-10-20T01:25:47.970Z,95417.38
2022-10-20T01:28:22.897Z,95416.66
2022-10-20T01:30:53.607Z,95416.94
2022-10-20T01:33:40.116Z,95411.00
2022-10-20T01:36:32.926Z,95411.63
2022-10-20T01:38:59.445Z,95399.19
2022-10-20T01:41:38.906Z,95411.19
2022-10-20T01:44:08.688Z,95417.69
2022-10-20T01:46:36.138Z,95411.38
2022-10-20T01:49:03.970Z,95425.00
2022-10-20T01:51:31.578Z,95432.38
2022-10-20T01:53:58.210Z,95427.72
2022-10-20T01:56:33.417Z,95431.31
2022-10-20T01:59:11.882Z,95429.34
2022-10-20T02:01:38.499Z,95434.84
2022-10-20T02:04:08.582Z,95426.13
2022-10-20T02:06:53.710Z,95431.16
2022-10-20T02:09:27.569Z,95435.91
2022-10-20T02:12:03.784Z,95434.38
2022-10-20T02:14:33.203Z,95434.03
2022-10-20T02:17:04.203Z,95442.25
2022-10-20T02:19:35.134Z,95445.50
2022-10-20T02:22:04.658Z,95446.94
2022-10-20T02:24:34.621Z,95444.94
2022-10-20T02:27:03.086Z,95451.13
2022-10-20T02:29:31.179Z,95454.50
2022-10-20T02:31:58.213Z,95461.69
2022-10-20T02:34:27.730Z,95450.44
2022-10-20T02:36:58.559Z,95462.88
2022-10-20T02:39:25.846Z,95456.84
2022-10-20T02:41:52.498Z,95454.91
2022-10-20T02:44:19.107Z,95459.56
2022-10-20T02:46:46.168Z,95463.38
2022-10-20T02:49:12.721Z,95466.81
2022-10-20T02:51:39.270Z,95465.84
2022-10-20T02:54:05.904Z,95469.69
2022-10-20T02:56:32.498Z,95477.09
2022-10-20T02:58:59.148Z,95472.75
2022-10-20T03:01:25.923Z,95419.69
2022-10-20T03:03:55.767Z,95467.16
2022-10-20T03:06:22.361Z,95474.16
2022-10-20T03:08:48.957Z,95471.63
2022-10-20T03:11:15.609Z,95471.63
2022-10-20T03:13:42.424Z,95468.44
2022-10-20T03:16:08.990Z,95472.44
2022-10-20T03:18:35.525Z,95466.00
2022-10-20T03:21:02.130Z,95478.00
2022-10-20T03:23:28.714Z,95475.22
2022-10-20T03:26:00.919Z,95474.41
2022-10-20T03:28:27.614Z,95477.38
2022-10-20T03:30:54.158Z,95474.38
2022-10-20T03:33:20.725Z,95479.38
2022-10-20T03:35:47.353Z,95475.56
2022-10-20T03:38:13.910Z,95475.16
2022-10-20T03:40:40.487Z,95481.56
2022-10-20T03:43:07.118Z,95488.75
2022-10-20T03:45:33.710Z,95488.75
2022-10-20T03:48:00.249Z,95493.16
2022-10-20T03:50:26.826Z,95500.34
2022-10-20T03:52:53.399Z,95495.16
2022-10-20T03:55:20.062Z,95492.38
2022-10-20T03:57:46.675Z,95492.38
2022-10-20T04:00:13.251Z,95498.16
2022-10-20T04:02:44.420Z,95491.59
2022-10-20T04:05:12.940Z,95491.94
2022-10-20T04:07:41.850Z,95486.00
2022-10-20T04:10:08.941Z,95484.16
2022-10-20T04:12:35.913Z,95495.94
2022-10-20T04:15:03.461Z,95489.38
2022-10-20T04:17:30.138Z,95487.56
2022-10-20T04:19:56.803Z,95494.34
2022-10-20T04:22:23.433Z,95500.53
2022-10-20T04:24:50.088Z,95495.13
2022-10-20T04:27:16.682Z,95494.75
2022-10-20T04:29:43.260Z,95500.31
2022-10-20T04:32:09.859Z,95497.09
2022-10-20T04:34:36.606Z,95495.28
2022-10-20T04:37:03.411Z,95490.28
2022-10-20T04:39:30.259Z,95503.84
2022-10-20T04:41:57.267Z,95495.06
2022-10-20T04:44:23.915Z,95500.06
2022-10-20T04:46:50.476Z,95505.84
2022-10-20T04:49:17.191Z,95507.06
2022-10-20T04:51:46.269Z,95503.06
2022-10-20T04:54:13.963Z,95507.88
2022-10-20T04:56:40.801Z,95514.63
2022-10-20T04:59:09.703Z,95520.22
2022-10-20T05:01:39.374Z,95514.63
2022-10-20T05:04:05.969Z,95516.25
2022-10-20T05:06:34.655Z,95521.06
2022-10-20T05:09:02.626Z,95523.63
2022-10-20T05:11:30.695Z,95532.63
2022-10-20T05:13:57.398Z,95527.88
2022-10-20T05:16:24.388Z,95546.22
2022-10-20T05:18:53.626Z,95537.06
2022-10-20T05:21:21.633Z,95535.06
2022-10-20T05:23:48.365Z,95534.47
2022-10-20T05:26:16.983Z,95549.22
2022-10-20T05:28:44.615Z,95547.06
2022-10-20T05:31:11.604Z,95551.66
2022-10-20T05:33:38.853Z,95560.28
2022-10-20T05:36:09.076Z,95561.91
2022-10-20T05:38:36.874Z,95573.88
2022-10-20T05:41:22.666Z,95582.66
2022-10-20T05:43:50.425Z,95580.66
2022-10-20T05:46:17.580Z,95577.44
2022-10-20T05:48:44.365Z,95583.84
2022-10-20T05:51:14.876Z,95585.03
2022-10-20T05:53:42.379Z,95590.63
2022-10-20T05:56:10.223Z,95611.19
2022-10-20T05:58:37.940Z,95606.59
2022-10-20T06:01:16.664Z,95616.16
2022-10-20T06:03:47.741Z,95616.53
2022-10-20T06:06:14.381Z,95622.13
2022-10-20T06:08:41.003Z,95624.72
2022-10-20T06:11:08.782Z,95633.50
2022-10-20T06:13:35.395Z,95632.28
2022-10-20T06:16:09.819Z,95632.66
2022-10-20T06:18:38.800Z,95642.03
2022-10-20T06:21:06.602Z,95652.03
2022-10-20T06:23:33.383Z,95645.84
2022-10-20T06:26:03.771Z,95654.84
2022-10-20T06:28:31.691Z,95652.81
2022-10-20T06:30:58.891Z,95657.56
2022-10-20T06:33:25.977Z,95660.34
2022-10-20T06:35:52.536Z,95670.34
2022-10-20T06:38:20.295Z,95659.88
2022-10-20T06:40:47.054Z,95669.47
2022-10-20T06:43:13.704Z,95675.88
2022-10-20T06:45:40.313Z,95665.25
2022-10-20T06:48:06.890Z,95667.84
2022-10-20T06:50:34.162Z,95672.19
2022-10-20T06:53:00.747Z,95671.34
2022-10-20T06:55:27.302Z,95677.06
2022-10-20T06:57:53.855Z,95674.19
2022-10-20T07:00:20.479Z,95681.28
2022-10-20T07:02:47.151Z,95682.69
2022-10-20T07:05:13.857Z,95678.22
2022-10-20T07:07:41.572Z,95678.97
2022-10-20T07:10:08.347Z,95676.53
2022-10-20T07:12:35.331Z,95685.97
2022-10-20T07:15:02.165Z,95682.22
2022-10-20T07:17:28.668Z,95683.25
2022-10-20T07:19:55.358Z,95676.72
2022-10-20T07:22:23.472Z,95689.63
2022-10-20T07:24:50.077Z,95679.66
2022-10-20T07:27:16.710Z,95683.00
2022-10-20T07:29:43.293Z,95671.41
2022-10-20T07:32:09.863Z,95682.44
2022-10-20T07:34:36.542Z,95676.84
2022-10-20T07:37:06.787Z,95678.56
2022-10-20T07:39:33.399Z,95673.13
2022-10-20T07:42:00.230Z,95675.88
2022-10-20T07:44:26.938Z,95685.44
2022-10-20T07:46:54.089Z,95681.19
2022-10-20T07:52:07.445Z,95675.41
2022-10-20T07:54:34.283Z,95660.81
2022-10-20T07:57:00.881Z,95682.38
2022-10-20T07:59:28.648Z,95663.44
2022-10-20T08:01:56.343Z,95670.81
2022-10-20T08:04:25.936Z,95659.22
2022-10-20T08:06:52.696Z,95670.63
2022-10-20T08:09:19.452Z,95669.84
2022-10-20T08:11:46.140Z,95683.38
2022-10-20T08:14:12.847Z,95669.72
2022-10-20T08:16:51.933Z,95680.44
2022-10-20T08:19:24.648Z,95674.09
2022-10-20T08:21:51.227Z,95668.91
2022-10-20T08:24:23.946Z,95663.69
2022-10-20T08:26:50.608Z,95674.56
2022-10-20T08:29:17.188Z,95669.13
2022-10-20T08:31:44.626Z,95665.47
2022-10-20T08:34:11.462Z,95673.19
2022-10-20T08:36:38.201Z,95662.66
2022-10-20T08:39:06.336Z,95682.78
2022-10-20T08:41:55.233Z,95657.72
2022-10-20T08:44:32.340Z,95663.41
2022-10-20T08:47:01.396Z,95667.69
2022-10-20T08:49:30.741Z,95670.66
2022-10-20T08:51:58.750Z,95667.06
2022-10-20T08:54:25.529Z,95664.41
2022-10-20T08:56:52.706Z,95661.44
2022-10-20T08:59:26.708Z,95658.72
2022-10-20T09:01:55.548Z,95663.84
2022-10-20T09:04:24.995Z,95670.72
2022-10-20T09:07:03.328Z,95683.44
2022-10-20T09:09:31.134Z,95656.91
2022-10-20T09:12:03.294Z,95661.22
2022-10-20T09:14:32.638Z,95672.34
2022-10-20T09:17:00.794Z,95659.50
2022-10-20T09:19:28.095Z,95673.47
2022-10-20T09:21:58.703Z,95670.63
2022-10-20T09:24:27.351Z,95671.50
2022-10-20T09:27:01.471Z,95673.47
2022-10-20T09:29:46.140Z,95671.88
2022-10-20T09:35:24.777Z,95680.47
2022-10-20T09:38:22.655Z,95668.81
2022-10-20T09:41:01.430Z,95670.28
2022-10-20T09:43:28.107Z,95670.25
2022-10-20T09:45:56.393Z,95673.13
2022-10-20T09:48:27.154Z,95666.81
2022-10-20T09:50:56.214Z,95670.09
2022-10-20T09:53:32.419Z,95661.94
2022-10-20T09:55:59.434Z,95674.72
2022-10-20T09:58:39.996Z,95673.44
2022-10-20T10:01:18.508Z,95652.88
2022-10-20T10:03:45.168Z,95654.78
2022-10-20T10:06:28.871Z,95660.59
2022-10-20T10:08:56.241Z,95660.41
2022-10-20T10:11:24.666Z,95654.16
2022-10-20T10:13:52.596Z,95649.91
2022-10-20T10:16:20.632Z,95652.47
2022-10-20T10:18:55.555Z,95651.88
2022-10-20T10:21:22.310Z,95653.81
2022-10-20T10:24:01.442Z,95645.88
2022-10-20T10:26:42.529Z,95655.25
2022-10-20T10:29:16.943Z,95643.97
2022-10-20T10:31:50.542Z,95655.38
2022-10-20T10:34:17.095Z,95642.34
2022-10-20T10:36:43.678Z,95637.72
2022-10-20T10:39:14.775Z,95626.78
2022-10-20T10:42:04.845Z,95641.16
2022-10-20T10:44:34.282Z,95639.47
2022-10-20T10:47:24.043Z,95633.50
2022-10-20T10:49:53.745Z,95632.16
2022-10-20T10:52:36.877Z,95635.66
2022-10-20T10:55:03.576Z,95623.56
2022-10-20T10:57:32.312Z,95611.72
2022-10-20T11:00:00.516Z,95627.38
2022-10-20T11:02:38.221Z,95603.78
2022-10-20T11:07:51.239Z,95608.97
2022-10-20T11:10:17.840Z,95600.84
2022-10-20T11:13:05.409Z,95594.06
2022-10-20T11:16:10.411Z,95599.97
2022-10-20T11:18:39.829Z,95595.72
2022-10-20T11:21:06.455Z,95592.88
2022-10-20T11:26:07.942Z,95603.09
2022-10-20T11:28:44.424Z,95590.75
2022-10-20T11:31:26.438Z,95581.44
2022-10-20T11:34:16.476Z,95582.97
2022-10-20T11:37:00.599Z,95591.00
2022-10-20T11:39:38.004Z,95579.41
2022-10-20T11:42:30.939Z,95571.69
2022-10-20T11:45:00.157Z,95567.31
2022-10-20T11:47:38.983Z,95553.19
2022-10-20T11:50:11.131Z,95572.94
2022-10-20T11:52:38.132Z,95577.28
2022-10-20T11:55:05.261Z,95569.00
2022-10-20T11:57:31.899Z,95565.88
2022-10-20T12:00:15.413Z,95568.44
2022-10-20T12:02:54.486Z,95565.34
2022-10-20T12:05:27.373Z,95568.63
2022-10-20T12:08:28.267Z,95576.03
2022-10-20T12:11:18.335Z,95567.13
2022-10-20T12:13:45.038Z,95567.16
2022-10-20T12:16:11.803Z,95568.22
2022-10-20T12:18:38.743Z,95558.22
2022-10-20T12:21:06.758Z,95572.38
2022-10-20T12:23:45.964Z,95562.94
2022-10-20T12:26:39.845Z,95564.53
2022-10-20T12:29:46.023Z,95572.06
2022-10-20T12:32:21.725Z,95566.41
2022-10-20T12:34:49.402Z,95562.47
2022-10-20T12:37:16.126Z,95568.09
2022-10-20T12:39:43.546Z,95566.66
2022-10-20T12:42:19.442Z,95568.56
2022-10-20T12:44:46.588Z,95567.84
2022-10-20T12:47:29.356Z,95565.63
2022-10-20T12:49:59.022Z,95571.75
2022-10-20T12:52:30.694Z,95566.66
2022-10-20T12:55:02.729Z,95575.75
2022-10-20T12:57:41.902Z,95574.56
2022-10-20T13:00:29.108Z,95575.13
2022-10-20T13:02:56.678Z,95579.31
2022-10-20T13:05:41.274Z,95581.75
2022-10-20T13:08:20.364Z,95592.25
2022-10-20T13:10:47.682Z,95592.88
2022-10-20T13:13:20.437Z,95590.31
2022-10-20T13:15:48.895Z,95591.50
2022-10-20T13:18:32.794Z,95598.75
2022-10-20T13:21:08.591Z,95588.81
2022-10-20T13:23:35.430Z,95582.97
2022-10-20T13:26:24.951Z,95592.19
2022-10-20T13:28:56.178Z,95588.06
2022-10-20T13:31:43.826Z,95594.16
2022-10-20T13:34:25.746Z,95586.81
2022-10-20T13:37:01.435Z,95581.47
2022-10-20T13:39:28.217Z,95592.59
2022-10-20T13:42:10.398Z,95595.16
2022-10-20T13:44:42.961Z,95586.31
2022-10-20T13:47:29.745Z,95583.72
2022-10-20T13:49:56.504Z,95590.03
2022-10-20T13:52:25.863Z,95583.78
2022-10-20T13:54:52.757Z,95593.25
2022-10-20T13:57:32.911Z,95580.38
2022-10-20T14:00:01.390Z,95592.63
2022-10-20T14:02:32.788Z,95594.13
2022-10-20T14:05:03.706Z,95599.97
2022-10-20T14:07:40.716Z,95601.25
2022-10-20T14:10:08.208Z,95607.38
2022-10-20T14:12:35.295Z,95603.91
2022-10-20T14:15:04.389Z,95596.75
2022-10-20T14:17:30.970Z,95596.41
2022-10-20T14:20:18.512Z,95609.16
2022-10-20T14:22:45.468Z,95605.72
2022-10-20T14:25:14.342Z,95612.81
2022-10-20T14:27:41.092Z,95597.00
2022-10-20T14:30:08.250Z,95593.88
2022-10-20T14:32:39.314Z,95608.66
2022-10-20T14:35:26.976Z,95604.81
2022-10-20T14:38:02.620Z,95604.81
2022-10-20T14:40:34.172Z,95599.16
2022-10-20T14:43:07.141Z,95599.31
2022-10-20T14:45:33.938Z,95592.88
2022-10-20T14:48:01.572Z,95595.38
2022-10-20T14:50:40.814Z,95603.75
2022-10-20T14:53:22.521Z,95597.41
2022-10-20T14:55:49.150Z,95599.88
2022-10-20T14:58:36.170Z,95601.44
2022-10-20T15:01:16.252Z,95596.94
2022-10-20T15:03:43.059Z,95598.25
2022-10-20T15:06:15.159Z,95602.03
2022-10-20T15:08:52.044Z,95605.31
2022-10-20T15:11:24.367Z,95607.50
2022-10-20T15:13:52.812Z,95598.78
2022-10-20T15:16:40.202Z,95599.19
2022-10-20T15:19:25.689Z,95605.75
2022-10-20T15:21:58.045Z,95605.47
2022-10-20T15:24:24.660Z,95603.59
2022-10-20T15:26:51.340Z,95604.28
2022-10-20T15:29:18.507Z,95607.13
2022-10-20T15:31:45.261Z,95609.97
2022-10-20T15:34:12.373Z,95610.75
2022-10-20T15:36:42.003Z,95610.19
2022-10-20T15:39:09.246Z,95617.84
2022-10-20T15:41:36.948Z,95602.91
2022-10-20T15:44:14.289Z,95610.28
2022-10-20T15:46:42.057Z,95605.91
2022-10-20T15:49:08.998Z,95617.25
2022-10-20T15:51:36.368Z,95616.91
2022-10-20T15:54:03.783Z,95617.81
2022-10-20T15:56:30.616Z,95619.47
2022-10-20T15:58:57.248Z,95619.94
2022-10-20T16:01:24.208Z,95620.84
2022-10-20T16:03:55.760Z,95623.72
2022-10-20T16:06:22.514Z,95625.88
2022-10-20T16:08:50.154Z,95626.78
2022-10-20T16:11:18.476Z,95632.03
2022-10-20T16:13:45.076Z,95624.41
2022-10-20T16:16:17.131Z,95630.09
2022-10-20T16:18:43.803Z,95633.75
2022-10-20T16:21:10.453Z,95634.31
2022-10-20T16:23:42.116Z,95642.03
2022-10-20T16:26:11.933Z,95646.31
2022-10-20T16:28:38.991Z,95647.28
2022-10-20T16:31:09.686Z,95643.75
2022-10-20T16:33:36.948Z,95648.97
2022-10-20T16:38:38.958Z,95659.28
2022-10-20T16:41:08.563Z,95654.13
2022-10-20T16:43:41.158Z,95665.97
2022-10-20T16:46:08.736Z,95669.25
2022-10-20T16:48:37.683Z,95675.44
2022-10-20T16:51:08.256Z,95675.16
2022-10-20T16:53:34.862Z,95676.59
2022-10-20T16:56:01.823Z,95690.41
2022-10-20T16:58:28.466Z,95680.81
2022-10-20T17:01:01.270Z,95684.16
2022-10-20T17:03:28.253Z,95683.25
2022-10-20T17:05:59.156Z,95687.31
2022-10-20T17:08:26.393Z,95684.88
2022-10-20T17:10:56.772Z,95690.88
2022-10-20T17:13:23.456Z,95687.31
2022-10-20T17:15:50.787Z,95697.25
2022-10-20T17:18:17.647Z,95691.50
2022-10-20T17:20:44.222Z,95693.94
2022-10-20T17:23:10.892Z,95697.69
2022-10-20T17:25:37.668Z,95688.94
2022-10-20T17:28:04.331Z,95699.50
2022-10-20T17:30:30.997Z,95706.63
2022-10-20T17:32:57.631Z,95699.59
2022-10-20T17:35:24.290Z,95706.13
2022-10-20T17:37:50.957Z,95705.28
2022-10-20T17:42:49.100Z,95707.50
2022-10-20T17:45:15.826Z,95710.31
2022-10-20T17:47:42.620Z,95706.09
2022-10-20T17:50:10.437Z,95706.66
2022-10-20T17:52:37.598Z,95707.91
2022-10-20T17:55:04.561Z,95706.41
2022-10-20T17:57:31.179Z,95707.25
2022-10-20T17:59:59.447Z,95712.81
2022-10-20T18:02:32.300Z,95711.63
2022-10-20T18:04:58.956Z,95708.81
2022-10-20T18:07:25.584Z,95706.47
2022-10-20T18:09:52.227Z,95710.50
2022-10-20T18:12:18.874Z,95713.69
2022-10-20T18:14:45.619Z,95710.91
2022-10-20T18:17:12.712Z,95722.50
2022-10-20T18:19:40.034Z,95720.91
2022-10-20T18:22:07.015Z,95726.13
2022-10-20T18:24:34.017Z,95726.75
2022-10-20T18:27:00.798Z,95729.34
2022-10-20T18:29:28.806Z,95728.56
2022-10-20T18:31:55.449Z,95732.16
2022-10-20T18:34:22.329Z,95738.16
2022-10-20T18:36:49.569Z,95733.56
2022-10-20T18:39:16.751Z,95730.16
2022-10-20T18:41:44.064Z,95733.34
2022-10-20T18:44:12.288Z,95744.94
2022-10-20T18:46:39.630Z,95742.50
2022-10-20T18:49:07.311Z,95749.69
2022-10-20T18:51:34.383Z,95758.63
2022-10-20T18:54:02.182Z,95753.22
2022-10-20T18:56:29.583Z,95754.00
2022-10-20T18:58:57.302Z,95756.44
2022-10-20T19:01:26.182Z,95756.38
2022-10-20T19:03:54.001Z,95762.69
2022-10-20T19:06:30.980Z,95759.50
2022-10-20T19:08:58.840Z,95762.47
2022-10-20T19:11:26.552Z,95770.63
2022-10-20T19:13:53.352Z,95765.59
2022-10-20T19:16:25.459Z,95759.84
2022-10-20T19:18:53.618Z,95766.59
2022-10-20T19:23:56.169Z,95769.63
2022-10-20T19:26:24.457Z,95773.06
2022-10-20T19:28:58.270Z,95771.44
2022-10-20T19:31:31.188Z,95771.94
2022-10-20T19:33:59.641Z,95770.25
2022-10-20T19:36:26.887Z,95781.38
2022-10-20T19:38:54.030Z,95780.41
2022-10-20T19:41:21.055Z,95782.94
2022-10-20T19:43:47.713Z,95779.06
2022-10-20T19:46:15.428Z,95788.31
2022-10-20T19:48:42.642Z,95793.00
2022-10-20T19:51:12.284Z,95790.56
2022-10-20T19:53:39.406Z,95800.53
2022-10-20T19:56:07.301Z,95794.91
2022-10-20T19:58:34.712Z,95791.41
2022-10-20T20:01:01.460Z,95800.50
2022-10-20T20:03:28.226Z,95788.44
2022-10-20T20:06:02.656Z,95795.34
2022-10-20T20:08:29.719Z,95794.72
2022-10-20T20:10:57.159Z,95797.44
2022-10-20T20:13:24.461Z,95796.56
2022-10-20T20:15:51.415Z,95801.00
2022-10-20T20:18:18.316Z,95803.47
2022-10-20T20:20:46.262Z,95806.88
2022-10-20T20:23:13.339Z,95799.19
2022-10-20T20:25:40.905Z,95806.53
2022-10-20T20:28:07.590Z,95801.44
2022-10-20T20:30:34.345Z,95803.94
2022-10-20T20:33:01.468Z,95801.78
2022-10-20T20:35:28.158Z,95802.59
2022-10-20T20:37:55.002Z,95798.56
2022-10-20T20:40:22.009Z,95798.03
2022-10-20T20:42:48.762Z,95802.16
2022-10-20T20:45:15.622Z,95807.34
2022-10-20T20:47:43.214Z,95805.19
2022-10-20T20:50:11.294Z,95793.44
2022-10-20T20:52:38.234Z,95808.06
2022-10-20T20:55:06.007Z,95809.13
2022-10-20T20:57:34.141Z,95812.78
2022-10-20T21:00:00.749Z,95804.75
2022-10-20T21:02:27.294Z,95810.69
2022-10-20T21:04:53.842Z,95807.81
2022-10-20T21:07:20.371Z,95806.25
2022-10-20T21:09:47.051Z,95804.97
2022-10-20T21:12:13.684Z,95810.06
2022-10-20T21:14:40.364Z,95803.00
2022-10-20T21:17:06.914Z,95808.34
2022-10-20T21:19:33.645Z,95814.66
2022-10-20T21:22:01.357Z,95811.47
2022-10-20T21:24:28.086Z,95808.59
2022-10-20T21:26:55.085Z,95810.63
2022-10-20T21:29:21.665Z,95814.00
2022-10-20T21:31:48.286Z,95797.31
2022-10-20T21:34:15.138Z,95806.91
2022-10-20T21:36:41.865Z,95807.28
2022-10-20T21:39:11.563Z,95816.53
2022-10-20T21:41:38.267Z,95819.28
2022-10-20T21:44:06.177Z,95830.44
2022-10-20T21:46:34.082Z,95834.00
2022-10-20T21:49:01.997Z,95833.09
2022-10-20T21:51:31.588Z,95833.09
2022-10-20T21:53:59.420Z,95837.13
2022-10-20T21:56:26.065Z,95851.28
2022-10-20T21:58:53.286Z,95847.78
2022-10-20T22:01:23.898Z,95857.53
2022-10-20T22:03:51.256Z,95852.69
2022-10-20T22:06:19.123Z,95850.78
2022-10-20T22:08:47.413Z,95846.28
2022-10-20T22:11:15.458Z,95853.06
2022-10-20T22:13:42.781Z,95849.84
2022-10-20T22:16:10.587Z,95847.75
2022-10-20T22:18:37.124Z,95857.16
2022-10-20T22:21:13.306Z,95863.13
2022-10-20T22:23:40.880Z,95856.38
2022-10-20T22:26:07.898Z,95865.72
2022-10-20T22:28:34.656Z,95870.00
2022-10-20T22:33:32.924Z,95873.53
2022-10-20T22:35:59.618Z,95871.25
2022-10-20T22:38:26.228Z,95874.81
2022-10-20T22:40:52.777Z,95868.03
2022-10-20T22:43:19.374Z,95876.09
2022-10-20T22:45:45.925Z,95875.63
2022-10-20T22:48:13.352Z,95875.16
2022-10-20T22:50:39.922Z,95870.00
2022-10-20T22:53:06.699Z,95868.06
2022-10-20T22:55:33.284Z,95870.03
2022-10-20T22:57:59.856Z,95870.66
2022-10-20T23:00:26.406Z,95862.75
2022-10-20T23:02:52.981Z,95861.94
2022-10-20T23:05:19.539Z,95871.66
2022-10-20T23:07:46.146Z,95864.56
2022-10-20T23:10:12.749Z,95866.50
2022-10-20T23:12:40.047Z,95867.50
2022-10-20T23:15:08.686Z,95862.97
2022-10-20T23:17:35.435Z,95860.03
2022-10-20T23:20:02.163Z,95861.66
2022-10-20T23:22:28.734Z,95863.63
2022-10-20T23:24:55.471Z,95866.50
2022-10-20T23:27:22.179Z,95872.81
2022-10-20T23:29:48.729Z,95870.72
2022-10-20T23:32:15.317Z,95868.16
2022-10-20T23:34:41.877Z,95873.47
2022-10-20T23:37:08.502Z,95875.88
2022-10-20T23:39:35.091Z,95877.66
2022-10-20T23:42:06.339Z,95870.25
2022-10-20T23:44:34.003Z,95882.94
2022-10-20T23:47:00.586Z,95880.97
2022-10-20T23:49:27.217Z,95884.53
2022-10-20T23:51:53.886Z,95873.28
2022-10-20T23:54:20.524Z,95877.16
2022-10-20T23:56:47.099Z,95876.22
2022-10-20T23:59:13.746Z,95871.53
